sensor_id;sensor_type;location;lat;lon;timestamp;pressure;altitude;pressure_sealevel;temperature;humidity
41686;BME280;27370;42.764;23.432;2022-07-17T00:00:00;95903.53;;;17.96;100.00
41686;BME280;27370;42.764;23.432;2022-07-17T00:02:26;95905.88;;;17.85;100.00
41686;BME280;27370;42.764;23.432;2022-07-17T00:04:52;95909.50;;;17.82;100.00
41686;BME280;27370;42.764;23.432;2022-07-17T00:07:17;95911.44;;;17.72;100.00
41686;BME280;27370;42.764;23.432;2022-07-17T00:09:43;95913.72;;;17.73;100.00
41686;BME280;27370;42.764;23.432;2022-07-17T00:12:09;95919.06;;;17.64;100.00
41686;BME280;27370;42.764;23.432;2022-07-17T00:14:35;95920.41;;;17.72;100.00
41686;BME280;27370;42.764;23.432;2022-07-17T00:17:00;95926.53;;;17.77;100.00
41686;BME280;27370;42.764;23.432;2022-07-17T00:19:26;95925.00;;;17.97;100.00
41686;BME280;27370;42.764;23.432;2022-07-17T00:21:51;95932.38;;;17.88;100.00
41686;BME280;27370;42.764;23.432;2022-07-17T00:24:17;95922.88;;;17.80;100.00
41686;BME280;27370;42.764;23.432;2022-07-17T00:26:49;95929.25;;;17.77;100.00
41686;BME280;27370;42.764;23.432;2022-07-17T00:29:16;95939.50;;;17.85;100.00
41686;BME280;27370;42.764;23.432;2022-07-17T00:31:42;95933.78;;;17.58;100.00
41686;BME280;27370;42.764;23.432;2022-07-17T00:34:07;95940.47;;;17.57;100.00
41686;BME280;27370;42.764;23.432;2022-07-17T00:36:33;95941.56;;;17.59;100.00
41686;BME280;27370;42.764;23.432;2022-07-17T00:38:59;95946.47;;;17.64;100.00
41686;BME280;27370;42.764;23.432;2022-07-17T00:41:24;95943.38;;;17.40;100.00
41686;BME280;27370;42.764;23.432;2022-07-17T00:43:50;95938.72;;;17.28;100.00
41686;BME280;27370;42.764;23.432;2022-07-17T00:46:15;95939.66;;;17.34;100.00
41686;BME280;27370;42.764;23.432;2022-07-17T00:48:41;95939.25;;;17.70;100.00
41686;BME280;27370;42.764;23.432;2022-07-17T00:51:06;95943.53;;;17.59;100.00
41686;BME280;27370;42.764;23.432;2022-07-17T00:53:33;95939.22;;;17.36;100.00
41686;BME280;27370;42.764;23.432;2022-07-17T00:56:04;95937.25;;;17.36;100.00
41686;BME280;27370;42.764;23.432;2022-07-17T00:58:34;95951.44;;;17.57;100.00
41686;BME280;27370;42.764;23.432;2022-07-17T01:00:59;95951.22;;;17.86;100.00
41686;BME280;27370;42.764;23.432;2022-07-17T01:03:25;95961.19;;;17.92;100.00
41686;BME280;27370;42.764;23.432;2022-07-17T01:05:52;95958.44;;;17.70;100.00
41686;BME280;27370;42.764;23.432;2022-07-17T01:08:18;95958.06;;;17.81;100.00
41686;BME280;27370;42.764;23.432;2022-07-17T01:10:43;95958.81;;;17.82;100.00
41686;BME280;27370;42.764;23.432;2022-07-17T01:13:09;95960.44;;;17.92;100.00
41686;BME280;27370;42.764;23.432;2022-07-17T01:15:39;95959.41;;;17.64;100.00
41686;BME280;27370;42.764;23.432;2022-07-17T01:18:10;95951.03;;;17.45;100.00
41686;BME280;27370;42.764;23.432;2022-07-17T01:20:37;95954.75;;;17.39;100.00
41686;BME280;27370;42.764;23.432;2022-07-17T01:23:04;95958.31;;;17.27;100.00
41686;BME280;27370;42.764;23.432;2022-07-17T01:25:30;95951.69;;;17.02;100.00
41686;BME280;27370;42.764;23.432;2022-07-17T01:27:55;95952.44;;;16.90;100.00
41686;BME280;27370;42.764;23.432;2022-07-17T01:30:21;95945.09;;;17.12;100.00
41686;BME280;27370;42.764;23.432;2022-07-17T01:32:47;95939.84;;;17.05;100.00
41686;BME280;27370;42.764;23.432;2022-07-17T01:35:14;95938.53;;;17.10;100.00
41686;BME280;27370;42.764;23.432;2022-07-17T01:37:41;95951.75;;;17.11;100.00
41686;BME280;27370;42.764;23.432;2022-07-17T01:40:08;95948.03;;;17.18;100.00
41686;BME280;27370;42.764;23.432;2022-07-17T01:42:35;95951.03;;;17.45;100.00
41686;BME280;27370;42.764;23.432;2022-07-17T01:45:01;95946.78;;;17.32;100.00
41686;BME280;27370;42.764;23.432;2022-07-17T01:47:26;95958.09;;;17.21;100.00
41686;BME280;27370;42.764;23.432;2022-07-17T01:49:53;95957.16;;;17.02;100.00
41686;BME280;27370;42.764;23.432;2022-07-17T01:52:21;95957.34;;;16.95;100.00
41686;BME280;27370;42.764;23.432;2022-07-17T01:54:48;95946.66;;;16.88;100.00
41686;BME280;27370;42.764;23.432;2022-07-17T01:57:13;95943.25;;;16.71;100.00
41686;BME280;27370;42.764;23.432;2022-07-17T01:59:40;95948.91;;;16.64;100.00
41686;BME280;27370;42.764;23.432;2022-07-17T02:02:07;95949.59;;;16.68;100.00
41686;BME280;27370;42.764;23.432;2022-07-17T02:04:33;95946.63;;;16.63;100.00
41686;BME280;27370;42.764;23.432;2022-07-17T02:07:00;95950.69;;;16.83;100.00
41686;BME280;27370;42.764;23.432;2022-07-17T02:09:25;95948.84;;;16.68;100.00
41686;BME280;27370;42.764;23.432;2022-07-17T02:11:51;95949.78;;;16.61;100.00
41686;BME280;27370;42.764;23.432;2022-07-17T02:14:17;95958.09;;;16.45;100.00
41686;BME280;27370;42.764;23.432;2022-07-17T02:16:43;95958.84;;;16.45;100.00
41686;BME280;27370;42.764;23.432;2022-07-17T02:19:08;95964.75;;;16.31;100.00
41686;BME280;27370;42.764;23.432;2022-07-17T02:21:34;95960.19;;;16.53;100.00
41686;BME280;27370;42.764;23.432;2022-07-17T02:23:59;95963.34;;;16.52;100.00
41686;BME280;27370;42.764;23.432;2022-07-17T02:26:25;95961.25;;;16.31;100.00
41686;BME280;27370;42.764;23.432;2022-07-17T02:28:50;95956.84;;;16.20;100.00
41686;BME280;27370;42.764;23.432;2022-07-17T02:31:16;95959.75;;;16.55;100.00
41686;BME280;27370;42.764;23.432;2022-07-17T02:33:41;95969.03;;;16.45;100.00
41686;BME280;27370;42.764;23.432;2022-07-17T02:36:07;95965.44;;;16.61;100.00
41686;BME280;27370;42.764;23.432;2022-07-17T02:38:33;95965.25;;;16.68;100.00
41686;BME280;27370;42.764;23.432;2022-07-17T02:40:59;95962.91;;;16.41;100.00
41686;BME280;27370;42.764;23.432;2022-07-17T02:43:24;95968.97;;;16.19;100.00
41686;BME280;27370;42.764;23.432;2022-07-17T02:45:50;95973.00;;;16.15;100.00
41686;BME280;27370;42.764;23.432;2022-07-17T02:48:15;95969.34;;;16.47;100.00
41686;BME280;27370;42.764;23.432;2022-07-17T02:50:41;95974.91;;;16.31;100.00
41686;BME280;27370;42.764;23.432;2022-07-17T02:53:07;95966.28;;;16.32;100.00
41686;BME280;27370;42.764;23.432;2022-07-17T02:55:32;95975.41;;;15.84;100.00
41686;BME280;27370;42.764;23.432;2022-07-17T02:57:58;95977.13;;;16.07;100.00
41686;BME280;27370;42.764;23.432;2022-07-17T03:00:24;95983.81;;;15.77;100.00
41686;BME280;27370;42.764;23.432;2022-07-17T03:02:49;95983.59;;;15.84;100.00
41686;BME280;27370;42.764;23.432;2022-07-17T03:05:16;95980.31;;;15.76;100.00
41686;BME280;27370;42.764;23.432;2022-07-17T03:07:42;95988.59;;;15.73;100.00
41686;BME280;27370;42.764;23.432;2022-07-17T03:10:09;95987.19;;;15.81;100.00
41686;BME280;27370;42.764;23.432;2022-07-17T03:12:35;95984.09;;;15.66;100.00
41686;BME280;27370;42.764;23.432;2022-07-17T03:15:02;95986.34;;;15.84;100.00
41686;BME280;27370;42.764;23.432;2022-07-17T03:17:27;95990.84;;;15.61;100.00
41686;BME280;27370;42.764;23.432;2022-07-17T03:19:53;95998.63;;;15.92;100.00
41686;BME280;27370;42.764;23.432;2022-07-17T03:22:18;95994.16;;;15.69;100.00
41686;BME280;27370;42.764;23.432;2022-07-17T03:24:44;95988.09;;;15.45;100.00
41686;BME280;27370;42.764;23.432;2022-07-17T03:27:09;95996.88;;;15.37;100.00
41686;BME280;27370;42.764;23.432;2022-07-17T03:29:35;96003.63;;;15.32;100.00
41686;BME280;27370;42.764;23.432;2022-07-17T03:32:00;95999.25;;;15.51;100.00
41686;BME280;27370;42.764;23.432;2022-07-17T03:34:26;96000.38;;;15.53;100.00
41686;BME280;27370;42.764;23.432;2022-07-17T03:36:51;96008.91;;;15.72;100.00
41686;BME280;27370;42.764;23.432;2022-07-17T03:39:17;96006.69;;;15.50;100.00
41686;BME280;27370;42.764;23.432;2022-07-17T03:41:43;96000.97;;;15.61;100.00
41686;BME280;27370;42.764;23.432;2022-07-17T03:44:09;96003.91;;;15.83;100.00
41686;BME280;27370;42.764;23.432;2022-07-17T03:46:34;96019.34;;;16.18;100.00
41686;BME280;27370;42.764;23.432;2022-07-17T03:49:00;96009.25;;;16.44;100.00
41686;BME280;27370;42.764;23.432;2022-07-17T03:51:26;96003.25;;;16.49;100.00
41686;BME280;27370;42.764;23.432;2022-07-17T03:53:51;96017.84;;;16.72;100.00
41686;BME280;27370;42.764;23.432;2022-07-17T03:56:17;96019.50;;;16.82;100.00
41686;BME280;27370;42.764;23.432;2022-07-17T03:58:43;96024.19;;;16.69;100.00
41686;BME280;27370;42.764;23.432;2022-07-17T04:01:08;96020.44;;;16.63;100.00
41686;BME280;27370;42.764;23.432;2022-07-17T04:03:34;96019.50;;;16.82;100.00
41686;BME280;27370;42.764;23.432;2022-07-17T04:05:59;96028.06;;;17.09;100.00
41686;BME280;27370;42.764;23.432;2022-07-17T04:08:25;96036.16;;;17.26;100.00
41686;BME280;27370;42.764;23.432;2022-07-17T04:10:51;96041.28;;;17.36;100.00
41686;BME280;27370;42.764;23.432;2022-07-17T04:13:16;96033.50;;;17.35;100.00
41686;BME280;27370;42.764;23.432;2022-07-17T04:15:42;96046.63;;;17.53;100.00
41686;BME280;27370;42.764;23.432;2022-07-17T04:18:29;96042.22;;;17.81;100.00
41686;BME280;27370;42.764;23.432;2022-07-17T04:21:03;96057.31;;;18.20;100.00
41686;BME280;27370;42.764;23.432;2022-07-17T04:23:29;96057.91;;;18.36;100.00
41686;BME280;27370;42.764;23.432;2022-07-17T04:25:55;96056.63;;;18.72;100.00
41686;BME280;27370;42.764;23.432;2022-07-17T04:28:21;96058.16;;;18.73;100.00
41686;BME280;27370;42.764;23.432;2022-07-17T04:30:47;96058.41;;;18.88;100.00
41686;BME280;27370;42.764;23.432;2022-07-17T04:33:12;96061.91;;;18.88;100.00
41686;BME280;27370;42.764;23.432;2022-07-17T04:35:39;96063.53;;;19.08;100.00
41686;BME280;27370;42.764;23.432;2022-07-17T04:38:05;96063.16;;;18.96;100.00
41686;BME280;27370;42.764;23.432;2022-07-17T04:40:32;96062.84;;;18.94;100.00
41686;BME280;27370;42.764;23.432;2022-07-17T04:42:58;96073.38;;;18.96;100.00
41686;BME280;27370;42.764;23.432;2022-07-17T04:45:23;96075.97;;;19.00;100.00
41686;BME280;27370;42.764;23.432;2022-07-17T04:47:49;96073.13;;;19.03;100.00
41686;BME280;27370;42.764;23.432;2022-07-17T04:50:14;96081.31;;;19.34;100.00
41686;BME280;27370;42.764;23.432;2022-07-17T04:52:40;96081.09;;;19.50;100.00
41686;BME280;27370;42.764;23.432;2022-07-17T04:55:06;96082.41;;;19.77;100.00
41686;BME280;27370;42.764;23.432;2022-07-17T04:57:32;96086.34;;;19.67;100.00
41686;BME280;27370;42.764;23.432;2022-07-17T04:59:58;96085.78;;;19.90;100.00
41686;BME280;27370;42.764;23.432;2022-07-17T05:02:23;96089.47;;;20.05;100.00
41686;BME280;27370;42.764;23.432;2022-07-17T05:04:49;96097.31;;;20.43;99.50
41686;BME280;27370;42.764;23.432;2022-07-17T05:07:15;96102.19;;;20.67;98.76
41686;BME280;27370;42.764;23.432;2022-07-17T05:09:41;96094.22;;;20.78;96.66
41686;BME280;27370;42.764;23.432;2022-07-17T05:12:06;96090.09;;;20.73;97.25
41686;BME280;27370;42.764;23.432;2022-07-17T05:14:32;96087.31;;;20.92;95.20
41686;BME280;27370;42.764;23.432;2022-07-17T05:16:58;96082.66;;;21.16;93.41
41686;BME280;27370;42.764;23.432;2022-07-17T05:19:23;96086.00;;;21.20;94.56
41686;BME280;27370;42.764;23.432;2022-07-17T05:21:49;96086.69;;;21.48;89.72
41686;BME280;27370;42.764;23.432;2022-07-17T05:24:15;96084.31;;;21.65;89.78
41686;BME280;27370;42.764;23.432;2022-07-17T05:26:41;96084.41;;;21.70;89.59
41686;BME280;27370;42.764;23.432;2022-07-17T05:29:07;96070.03;;;21.76;88.89
41686;BME280;27370;42.764;23.432;2022-07-17T05:31:32;96080.66;;;22.16;86.35
41686;BME280;27370;42.764;23.432;2022-07-17T05:33:58;96083.06;;;22.23;84.23
41686;BME280;27370;42.764;23.432;2022-07-17T05:36:23;96084.41;;;22.27;83.73
41686;BME280;27370;42.764;23.432;2022-07-17T05:38:49;96084.50;;;22.33;82.53
41686;BME280;27370;42.764;23.432;2022-07-17T05:41:14;96092.53;;;22.46;80.27
41686;BME280;27370;42.764;23.432;2022-07-17T05:43:40;96093.91;;;22.65;76.15
41686;BME280;27370;42.764;23.432;2022-07-17T05:46:06;96090.84;;;22.63;79.60
41686;BME280;27370;42.764;23.432;2022-07-17T05:48:31;96075.16;;;22.69;81.36
41686;BME280;27370;42.764;23.432;2022-07-17T05:50:57;96085.66;;;22.95;75.28
41686;BME280;27370;42.764;23.432;2022-07-17T05:53:23;96088.44;;;23.09;72.50
41686;BME280;27370;42.764;23.432;2022-07-17T05:55:49;96095.19;;;23.23;69.25
41686;BME280;27370;42.764;23.432;2022-07-17T05:58:15;96097.06;;;23.46;68.59
41686;BME280;27370;42.764;23.432;2022-07-17T06:00:40;96097.97;;;23.73;66.96
41686;BME280;27370;42.764;23.432;2022-07-17T06:03:06;96087.75;;;23.79;66.80
41686;BME280;27370;42.764;23.432;2022-07-17T06:05:31;96092.53;;;23.78;66.18
41686;BME280;27370;42.764;23.432;2022-07-17T06:07:57;96097.31;;;23.98;63.55
41686;BME280;27370;42.764;23.432;2022-07-17T06:10:24;96094.25;;;23.96;61.43
41686;BME280;27370;42.764;23.432;2022-07-17T06:12:50;96091.50;;;23.96;61.46
41686;BME280;27370;42.764;23.432;2022-07-17T06:15:21;96095.41;;;24.25;59.99
41686;BME280;27370;42.764;23.432;2022-07-17T06:17:47;96084.25;;;24.19;59.34
41686;BME280;27370;42.764;23.432;2022-07-17T06:20:13;96085.66;;;24.29;59.05
41686;BME280;27370;42.764;23.432;2022-07-17T06:22:40;96089.66;;;24.49;54.85
41686;BME280;27370;42.764;23.432;2022-07-17T06:25:06;96088.69;;;24.52;58.20
41686;BME280;27370;42.764;23.432;2022-07-17T06:27:32;96090.66;;;24.71;59.27
41686;BME280;27370;42.764;23.432;2022-07-17T06:29:57;96091.75;;;24.80;55.22
41686;BME280;27370;42.764;23.432;2022-07-17T06:32:23;96092.09;;;25.13;54.07
41686;BME280;27370;42.764;23.432;2022-07-17T06:34:49;96087.47;;;25.04;55.75
41686;BME280;27370;42.764;23.432;2022-07-17T06:37:14;96099.69;;;24.92;59.10
41686;BME280;27370;42.764;23.432;2022-07-17T06:39:40;96096.06;;;25.07;58.22
41686;BME280;27370;42.764;23.432;2022-07-17T06:42:05;96094.72;;;25.28;53.39
41686;BME280;27370;42.764;23.432;2022-07-17T06:44:31;96094.94;;;25.24;53.14
41686;BME280;27370;42.764;23.432;2022-07-17T06:46:57;96093.78;;;25.05;55.57
41686;BME280;27370;42.764;23.432;2022-07-17T06:49:22;96092.47;;;25.00;56.39
41686;BME280;27370;42.764;23.432;2022-07-17T06:51:47;96090.88;;;24.94;56.21
41686;BME280;27370;42.764;23.432;2022-07-17T06:54:14;96087.44;;;24.99;59.52
41686;BME280;27370;42.764;23.432;2022-07-17T06:56:40;96084.72;;;25.36;55.80
41686;BME280;27370;42.764;23.432;2022-07-17T06:59:06;96092.13;;;25.82;54.24
41686;BME280;27370;42.764;23.432;2022-07-17T07:01:36;96087.06;;;26.29;51.97
41686;BME280;27370;42.764;23.432;2022-07-17T07:04:02;96090.44;;;26.49;49.59
41686;BME280;27370;42.764;23.432;2022-07-17T07:06:28;96085.66;;;26.50;44.82
41686;BME280;27370;42.764;23.432;2022-07-17T07:08:54;96082.88;;;26.50;47.49
41686;BME280;27370;42.764;23.432;2022-07-17T07:11:20;96086.41;;;26.50;46.32
41686;BME280;27370;42.764;23.432;2022-07-17T07:13:46;96089.50;;;26.75;42.68
41686;BME280;27370;42.764;23.432;2022-07-17T07:16:11;96089.94;;;26.51;43.72
41686;BME280;27370;42.764;23.432;2022-07-17T07:18:37;96091.16;;;26.44;43.07
41686;BME280;27370;42.764;23.432;2022-07-17T07:21:03;96085.28;;;26.31;43.01
41686;BME280;27370;42.764;23.432;2022-07-17T07:23:28;96081.97;;;26.21;42.71
41686;BME280;27370;42.764;23.432;2022-07-17T07:25:54;96088.56;;;26.30;41.18
41686;BME280;27370;42.764;23.432;2022-07-17T07:28:19;96084.03;;;26.27;42.21
41686;BME280;27370;42.764;23.432;2022-07-17T07:30:45;96096.16;;;26.29;40.98
41686;BME280;27370;42.764;23.432;2022-07-17T07:33:10;96091.16;;;26.44;43.56
41686;BME280;27370;42.764;23.432;2022-07-17T07:35:36;96094.00;;;26.67;42.67
41686;BME280;27370;42.764;23.432;2022-07-17T07:38:03;96090.72;;;26.57;39.72
41686;BME280;27370;42.764;23.432;2022-07-17T07:40:28;96082.38;;;26.51;40.30
41686;BME280;27370;42.764;23.432;2022-07-17T07:42:54;96081.88;;;26.70;40.99
41686;BME280;27370;42.764;23.432;2022-07-17T07:45:20;96096.84;;;26.78;38.68
41686;BME280;27370;42.764;23.432;2022-07-17T07:47:47;96089.75;;;26.77;40.28
41686;BME280;27370;42.764;23.432;2022-07-17T07:50:14;96094.31;;;26.74;39.61
41686;BME280;27370;42.764;23.432;2022-07-17T07:52:40;96087.53;;;26.98;40.64
41686;BME280;27370;42.764;23.432;2022-07-17T07:55:06;96092.59;;;26.99;39.34
41686;BME280;27370;42.764;23.432;2022-07-17T07:57:33;96092.59;;;27.05;38.94
41686;BME280;27370;42.764;23.432;2022-07-17T07:59:59;96095.13;;;27.14;39.17
41686;BME280;27370;42.764;23.432;2022-07-17T08:02:25;96095.38;;;27.05;39.03
41686;BME280;27370;42.764;23.432;2022-07-17T08:04:50;96099.16;;;27.02;39.89
41686;BME280;27370;42.764;23.432;2022-07-17T08:07:16;96098.38;;;26.96;39.56
41686;BME280;27370;42.764;23.432;2022-07-17T08:09:41;96099.16;;;27.02;38.41
41686;BME280;27370;42.764;23.432;2022-07-17T08:12:07;96096.63;;;27.15;39.69
41686;BME280;27370;42.764;23.432;2022-07-17T08:14:32;96099.94;;;27.13;38.32
41686;BME280;27370;42.764;23.432;2022-07-17T08:16:58;96103.25;;;27.18;37.70
41686;BME280;27370;42.764;23.432;2022-07-17T08:19:23;96102.47;;;27.28;38.14
41686;BME280;27370;42.764;23.432;2022-07-17T08:21:49;96095.41;;;27.44;37.41
41686;BME280;27370;42.764;23.432;2022-07-17T08:24:14;96102.00;;;27.63;38.80
41686;BME280;27370;42.764;23.432;2022-07-17T08:26:42;96103.97;;;27.80;36.26
41686;BME280;27370;42.764;23.432;2022-07-17T08:29:07;96105.25;;;27.84;37.76
41686;BME280;27370;42.764;23.432;2022-07-17T08:31:33;96095.34;;;27.94;40.05
41686;BME280;27370;42.764;23.432;2022-07-17T08:33:58;96103.47;;;27.92;36.46
41686;BME280;27370;42.764;23.432;2022-07-17T08:36:24;96091.06;;;27.82;39.39
41686;BME280;27370;42.764;23.432;2022-07-17T08:38:49;96107.03;;;27.87;37.50
41686;BME280;27370;42.764;23.432;2022-07-17T08:41:15;96095.13;;;27.75;36.28
41686;BME280;27370;42.764;23.432;2022-07-17T08:43:42;96094.34;;;27.81;40.14
41686;BME280;27370;42.764;23.432;2022-07-17T08:46:12;96098.34;;;28.02;39.12
41686;BME280;27370;42.764;23.432;2022-07-17T08:48:42;96081.38;;;28.11;36.80
41686;BME280;27370;42.764;23.432;2022-07-17T08:51:09;96083.13;;;28.20;38.57
41686;BME280;27370;42.764;23.432;2022-07-17T08:53:37;96093.50;;;28.25;36.03
41686;BME280;27370;42.764;23.432;2022-07-17T08:56:02;96086.91;;;28.28;35.92
41686;BME280;27370;42.764;23.432;2022-07-17T08:58:29;96082.88;;;28.18;34.95
41686;BME280;27370;42.764;23.432;2022-07-17T09:00:54;96091.72;;;28.33;37.30
41686;BME280;27370;42.764;23.432;2022-07-17T09:03:20;96091.22;;;28.34;34.25
41686;BME280;27370;42.764;23.432;2022-07-17T09:05:48;96090.44;;;28.23;36.17
41686;BME280;27370;42.764;23.432;2022-07-17T09:08:23;96083.16;;;28.03;37.66
41686;BME280;27370;42.764;23.432;2022-07-17T09:10:51;96091.00;;;28.16;34.71
41686;BME280;27370;42.764;23.432;2022-07-17T09:13:19;96081.84;;;28.32;32.55
41686;BME280;27370;42.764;23.432;2022-07-17T09:15:46;96082.53;;;28.44;35.89
41686;BME280;27370;42.764;23.432;2022-07-17T09:18:13;96088.84;;;28.50;33.62
41686;BME280;27370;42.764;23.432;2022-07-17T09:20:49;96090.94;;;28.38;32.48
41686;BME280;27370;42.764;23.432;2022-07-17T09:23:17;96087.81;;;28.58;33.59
41686;BME280;27370;42.764;23.432;2022-07-17T09:25:45;96086.16;;;28.80;34.15
41686;BME280;27370;42.764;23.432;2022-07-17T09:28:12;96088.94;;;28.80;31.81
41686;BME280;27370;42.764;23.432;2022-07-17T09:30:44;96091.50;;;28.72;31.17
41686;BME280;27370;42.764;23.432;2022-07-17T09:33:28;96087.34;;;28.43;32.65
41686;BME280;27370;42.764;23.432;2022-07-17T09:36:03;96086.56;;;28.48;31.59
41686;BME280;27370;42.764;23.432;2022-07-17T09:38:36;96077.31;;;28.76;33.23
41686;BME280;27370;42.764;23.432;2022-07-17T09:41:13;96078.34;;;28.73;34.61
41686;BME280;27370;42.764;23.432;2022-07-17T09:46:40;96093.94;;;28.98;33.28
41686;BME280;27370;42.764;23.432;2022-07-17T09:49:07;96099.31;;;28.32;33.07
41686;BME280;27370;42.764;23.432;2022-07-17T09:51:35;96088.94;;;28.22;33.89
41686;BME280;27370;42.764;23.432;2022-07-17T09:54:05;96091.69;;;28.39;36.62
41686;BME280;27370;42.764;23.432;2022-07-17T09:56:32;96092.34;;;28.61;36.07
41686;BME280;27370;42.764;23.432;2022-07-17T09:59:06;96088.03;;;29.07;35.14
41686;BME280;27370;42.764;23.432;2022-07-17T10:01:33;96083.28;;;29.32;35.21
41686;BME280;27370;42.764;23.432;2022-07-17T10:03:59;96083.94;;;29.49;35.77
41686;BME280;27370;42.764;23.432;2022-07-17T10:06:25;96082.31;;;29.60;33.29
41686;BME280;27370;42.764;23.432;2022-07-17T10:08:53;96074.38;;;29.69;34.69
41686;BME280;27370;42.764;23.432;2022-07-17T10:11:25;96077.09;;;29.75;33.34
41686;BME280;27370;42.764;23.432;2022-07-17T10:13:53;96082.06;;;30.12;33.11
41686;BME280;27370;42.764;23.432;2022-07-17T10:16:32;96068.91;;;30.07;31.36
41686;BME280;27370;42.764;23.432;2022-07-17T10:18:58;96076.56;;;29.76;30.49
41686;BME280;27370;42.764;23.432;2022-07-17T10:21:27;96075.84;;;29.46;33.03
41686;BME280;27370;42.764;23.432;2022-07-17T10:26:39;96070.19;;;29.21;31.64
41686;BME280;27370;42.764;23.432;2022-07-17T10:31:53;96068.09;;;28.98;32.17
41686;BME280;27370;42.764;23.432;2022-07-17T10:34:36;96074.50;;;29.17;33.42
41686;BME280;27370;42.764;23.432;2022-07-17T10:37:20;96074.81;;;29.13;32.97
41686;BME280;27370;42.764;23.432;2022-07-17T10:40:03;96081.78;;;29.31;32.85
41686;BME280;27370;42.764;23.432;2022-07-17T10:45:29;96077.47;;;29.30;30.99
41686;BME280;27370;42.764;23.432;2022-07-17T10:48:19;96075.31;;;29.47;32.73
41686;BME280;27370;42.764;23.432;2022-07-17T10:53:28;96068.47;;;29.48;30.87
41686;BME280;27370;42.764;23.432;2022-07-17T10:56:05;96065.31;;;29.57;30.33
41686;BME280;27370;42.764;23.432;2022-07-17T10:58:33;96058.84;;;29.74;32.22
41686;BME280;27370;42.764;23.432;2022-07-17T11:06:17;96065.72;;;29.37;33.08
41686;BME280;27370;42.764;23.432;2022-07-17T11:08:54;96054.69;;;29.56;32.09
41686;BME280;27370;42.764;23.432;2022-07-17T11:11:42;96060.69;;;29.90;32.00
41686;BME280;27370;42.764;23.432;2022-07-17T11:14:12;96060.69;;;29.90;30.72
41686;BME280;27370;42.764;23.432;2022-07-17T11:16:44;96064.28;;;29.85;32.15
41686;BME280;27370;42.764;23.432;2022-07-17T11:19:10;96048.59;;;29.82;31.47
41686;BME280;27370;42.764;23.432;2022-07-17T11:21:49;96048.47;;;29.93;31.81
41686;BME280;27370;42.764;23.432;2022-07-17T11:24:15;96049.03;;;29.86;32.53
41686;BME280;27370;42.764;23.432;2022-07-17T11:26:41;96052.09;;;29.88;31.82
41686;BME280;27370;42.764;23.432;2022-07-17T11:29:07;96042.06;;;29.49;33.01
41686;BME280;27370;42.764;23.432;2022-07-17T11:31:32;96036.72;;;29.51;31.94
41686;BME280;27370;42.764;23.432;2022-07-17T11:34:04;96041.59;;;29.94;36.19
41686;BME280;27370;42.764;23.432;2022-07-17T11:36:38;96033.56;;;30.34;33.15
41686;BME280;27370;42.764;23.432;2022-07-17T11:39:07;96035.44;;;30.44;30.57
41686;BME280;27370;42.764;23.432;2022-07-17T11:41:41;96032.78;;;29.90;32.47
41686;BME280;27370;42.764;23.432;2022-07-17T11:44:11;96031.88;;;30.01;32.22
41686;BME280;27370;42.764;23.432;2022-07-17T11:46:40;96026.19;;;30.12;32.65
41686;BME280;27370;42.764;23.432;2022-07-17T11:49:06;96028.47;;;30.51;34.60
41686;BME280;27370;42.764;23.432;2022-07-17T11:51:43;96028.63;;;30.40;30.68
41686;BME280;27370;42.764;23.432;2022-07-17T11:54:16;96029.00;;;30.49;33.20
41686;BME280;27370;42.764;23.432;2022-07-17T11:56:43;96013.19;;;30.90;31.21
41686;BME280;27370;42.764;23.432;2022-07-17T11:59:23;96009.00;;;30.96;31.65
41686;BME280;27370;42.764;23.432;2022-07-17T12:01:50;96012.34;;;30.63;32.20
41686;BME280;27370;42.764;23.432;2022-07-17T12:04:15;96010.53;;;30.97;33.96
41686;BME280;27370;42.764;23.432;2022-07-17T12:06:41;96004.84;;;31.35;33.21
41686;BME280;27370;42.764;23.432;2022-07-17T12:09:07;96007.28;;;31.71;32.34
41686;BME280;27370;42.764;23.432;2022-07-17T12:11:44;96008.13;;;32.18;31.83
41686;BME280;27370;42.764;23.432;2022-07-17T12:14:10;96002.63;;;32.39;31.35
41686;BME280;27370;42.764;23.432;2022-07-17T12:16:36;96003.25;;;32.45;29.98
41686;BME280;27370;42.764;23.432;2022-07-17T12:19:10;96013.19;;;32.33;29.38
41686;BME280;27370;42.764;23.432;2022-07-17T12:24:31;96010.13;;;31.06;32.60
41686;BME280;27370;42.764;23.432;2022-07-17T12:26:59;96010.63;;;30.92;31.76
41686;BME280;27370;42.764;23.432;2022-07-17T12:29:25;96017.47;;;30.59;33.09
41686;BME280;27370;42.764;23.432;2022-07-17T12:32:01;96018.06;;;30.14;33.85
41686;BME280;27370;42.764;23.432;2022-07-17T12:34:26;96013.50;;;29.86;33.78
41686;BME280;27370;42.764;23.432;2022-07-17T12:36:52;96019.84;;;29.63;34.47
41686;BME280;27370;42.764;23.432;2022-07-17T12:39:17;96009.56;;;29.52;33.65
41686;BME280;27370;42.764;23.432;2022-07-17T12:41:44;96005.56;;;29.47;35.55
41686;BME280;27370;42.764;23.432;2022-07-17T12:44:10;96009.63;;;29.16;35.78
41686;BME280;27370;42.764;23.432;2022-07-17T12:46:36;96007.25;;;28.96;39.12
41686;BME280;27370;42.764;23.432;2022-07-17T12:49:01;96014.06;;;29.01;37.72
41686;BME280;27370;42.764;23.432;2022-07-17T12:51:27;96011.81;;;28.99;37.31
41686;BME280;27370;42.764;23.432;2022-07-17T12:53:52;96014.19;;;29.14;37.11
41686;BME280;27370;42.764;23.432;2022-07-17T12:56:18;96005.06;;;29.43;37.16
41686;BME280;27370;42.764;23.432;2022-07-17T12:58:44;95999.56;;;29.62;36.47
41686;BME280;27370;42.764;23.432;2022-07-17T13:01:10;95996.03;;;29.32;36.37
41686;BME280;27370;42.764;23.432;2022-07-17T13:03:37;96010.50;;;29.30;36.38
41686;BME280;27370;42.764;23.432;2022-07-17T13:06:02;96002.72;;;29.53;36.56